San Luis, San Luis Airport (SAOU)

NameSan Luis Airport
CitySan Luis
CountryArgentina
ICAOSAOU
IATALUQ
Altitude710 m
CoordinatesGoogle Map
Live Air TrafficLiveATC.net
METARSAOU 062045Z 09015G25KT 9999 TS SCT030 FEW045CB 29/21 Q1013
2020-02-06 20:45:00 Wind: East (90°) 7.72 m/s - Visibility: > 10000 m - Weather: Thunderstorm - Temperature: 29 °C - Dew point: 21 °C - Humidity: 62% - Pressure: 1013 hPa
Statistics

The table below shows the detailed information of all flights to/from San Luis, San Luis Airport (SAOU).